Time;durP1;ratioP1;P1;durP2;ratioP2;P2;SDS_P1;SDS_P2;PMS_P1;PMS_P2;Temp;Humidity;BMP_temperature;BMP_pressure;BME280_temperature;BME280_humidity;BME280_pressure;Samples;Min_cycle;Max_cycle;Signal;HPM_P1;HPM_P2
2022/05/24 00:02:04;;;;;;;10.43;7.55;;;;;;;12.67;97.05;98062.19;5008142;28;20034;-56
2022/05/24 00:04:30;;;;;;;10.88;7.55;;;;;;;12.64;97.68;98060.06;5007546;28;20447;-56
2022/05/24 00:06:56;;;;;;;13.57;7.60;;;;;;;12.58;97.84;98058.53;4983265;28;20096;-57
2022/05/24 00:09:22;;;;;;;12.80;7.68;;;;;;;12.42;99.06;98062.44;4995323;28;20365;-59
2022/05/24 00:11:48;;;;;;;19.00;8.65;;;;;;;12.44;98.77;98066.44;5006303;28;20034;-57
2022/05/24 00:14:13;;;;;;;12.85;9.02;;;;;;;12.41;98.99;98066.22;5007428;28;20080;-57
2022/05/24 00:16:39;;;;;;;14.05;8.10;;;;;;;12.37;99.48;98070.53;5008396;28;20018;-56
2022/05/24 00:19:05;;;;;;;14.85;9.70;;;;;;;12.26;100.00;98073.31;5006054;28;20072;-56
2022/05/24 00:21:30;;;;;;;20.20;9.77;;;;;;;12.21;100.00;98069.88;4978614;28;20465;-56
2022/05/24 00:23:56;;;;;;;17.10;9.93;;;;;;;12.20;100.00;98073.63;5005191;28;20180;-56
2022/05/24 00:26:28;;;;;;;15.82;9.57;;;;;;;12.21;100.00;98067.97;4970251;28;20036;-56
2022/05/24 00:28:54;;;;;;;15.23;10.02;;;;;;;12.22;100.00;98063.41;4990032;28;20109;-57
2022/05/24 00:31:19;;;;;;;15.00;8.85;;;;;;;12.24;100.00;98058.56;5008079;28;20408;-56
2022/05/24 00:33:45;;;;;;;14.35;9.07;;;;;;;12.24;99.92;98063.94;5007490;28;20106;-56
2022/05/24 00:36:11;;;;;;;15.23;8.57;;;;;;;12.23;99.63;98065.00;4984859;28;20412;-57
2022/05/24 00:38:37;;;;;;;11.57;8.68;;;;;;;12.29;99.44;98063.88;4960361;28;20038;-56
2022/05/24 00:41:44;;;;;;;13.40;8.73;;;;;;;12.26;99.38;98075.19;5008063;28;20057;-57
2022/05/24 00:44:32;;;;;;;21.40;9.98;;;;;;;12.24;100.00;98078.16;4997742;28;20117;-57
2022/05/24 00:47:03;;;;;;;14.27;9.63;;;;;;;12.11;100.00;98100.28;4986867;28;20065;-58
2022/05/24 00:49:39;;;;;;;14.70;9.18;;;;;;;12.13;100.00;98098.13;4991099;28;20054;-58
2022/05/24 00:52:14;;;;;;;14.25;8.98;;;;;;;12.05;100.00;98086.06;5006246;28;20057;-57
2022/05/24 00:54:44;;;;;;;15.27;9.82;;;;;;;12.02;100.00;98086.66;5006339;28;20029;-56
2022/05/24 00:57:34;;;;;;;18.38;9.75;;;;;;;11.96;100.00;98082.41;5006630;28;20026;-57
2022/05/24 01:00:10;;;;;;;;;;;;;;;12.03;100.00;98087.44;4985057;28;20034;-54
2022/05/24 01:02:36;;;;;;;14.75;9.95;;;;;;;12.11;100.00;98078.00;5002497;28;19925;-56
2022/05/24 01:05:04;;;;;;;19.90;10.05;;;;;;;12.11;100.00;98061.91;5006756;28;20069;-58
2022/05/24 01:07:30;;;;;;;21.95;10.73;;;;;;;12.15;100.00;98063.72;4973124;28;20030;-57
2022/05/24 01:10:01;;;;;;;14.43;9.57;;;;;;;12.17;100.00;98072.31;5005982;28;20088;-57
2022/05/24 01:12:42;;;;;;;18.95;10.57;;;;;;;12.24;100.00;98055.88;5007154;28;20045;-56
2022/05/24 01:15:09;;;;;;;19.40;11.20;;;;;;;12.21;100.00;98061.81;5002597;28;20045;-57
2022/05/24 01:17:35;;;;;;;16.98;9.75;;;;;;;12.27;100.00;98069.53;4987385;28;20021;-57
2022/05/24 01:20:00;;;;;;;16.30;10.63;;;;;;;12.29;100.00;98064.69;5005863;28;20033;-56
2022/05/24 01:22:38;;;;;;;13.55;9.85;;;;;;;12.31;100.00;98056.34;4989005;28;20030;-56
2022/05/24 01:25:05;;;;;;;19.15;10.52;;;;;;;12.36;100.00;98059.00;4969527;28;20467;-57
2022/05/24 01:27:31;;;;;;;13.25;9.80;;;;;;;12.44;100.00;98055.69;5004608;28;20034;-56
2022/05/24 01:29:57;;;;;;;14.20;9.50;;;;;;;12.46;100.00;98060.78;4999763;28;20104;-57
2022/05/24 01:37:52;;;;;;;14.43;9.13;;;;;;;12.49;100.00;98068.28;5004591;28;20041;-56
2022/05/24 01:40:18;;;;;;;15.50;9.82;;;;;;;12.53;100.00;98074.69;5005894;28;20101;-57
2022/05/24 01:42:43;;;;;;;14.73;9.77;;;;;;;12.62;100.00;98081.03;4987199;28;20028;-55
2022/05/24 01:45:19;;;;;;;15.07;10.38;;;;;;;12.60;100.00;98080.53;4987825;28;20033;-56
2022/05/24 01:47:55;;;;;;;16.48;9.98;;;;;;;12.70;100.00;98080.44;4984759;28;20049;-56
2022/05/24 01:50:21;;;;;;;12.10;8.38;;;;;;;12.68;100.00;98077.25;4978960;28;20034;-57
2022/05/24 01:52:47;;;;;;;20.25;9.15;;;;;;;12.68;100.00;98077.25;4982973;28;20060;-57
2022/05/24 01:55:16;;;;;;;12.25;8.77;;;;;;;12.81;100.00;98075.75;4996384;28;20073;-56
2022/05/24 01:57:47;;;;;;;17.35;8.77;;;;;;;12.76;100.00;98075.03;4980532;28;20385;-56
2022/05/24 02:00:13;;;;;;;13.70;9.15;;;;;;;12.77;100.00;98069.34;4985937;28;20049;-57
2022/05/24 02:02:39;;;;;;;13.05;8.77;;;;;;;12.82;100.00;98060.44;4982012;28;20077;-56
2022/05/24 02:05:05;;;;;;;12.85;8.88;;;;;;;12.88;100.00;98057.41;4985096;28;20527;-56
2022/05/24 02:07:32;;;;;;;12.95;8.52;;;;;;;12.92;100.00;98054.94;4985199;28;20037;-56
2022/05/24 02:09:57;;;;;;;13.65;9.43;;;;;;;12.87;100.00;98047.72;4984977;28;20511;-56
2022/05/24 02:12:50;;;;;;;16.75;9.65;;;;;;;12.98;100.00;98026.09;4983907;28;20034;-55
2022/05/24 02:15:17;;;;;;;12.35;9.10;;;;;;;12.91;100.00;98029.13;4982595;28;20192;-56
2022/05/24 02:18:04;;;;;;;15.88;9.07;;;;;;;12.82;100.00;98025.47;4981220;28;20515;-55
2022/05/24 02:20:31;;;;;;;17.35;9.65;;;;;;;12.87;100.00;98017.34;4985531;28;20033;-56
2022/05/24 02:22:57;;;;;;;16.17;10.38;;;;;;;12.84;100.00;98015.22;4985420;28;20073;-56
2022/05/24 02:25:27;;;;;;;13.50;9.02;;;;;;;12.80;100.00;98016.88;4986664;28;20030;-55
2022/05/24 02:27:53;;;;;;;15.55;9.68;;;;;;;12.83;100.00;98019.00;4967770;28;20081;-55
2022/05/24 02:30:24;;;;;;;12.60;9.15;;;;;;;12.87;100.00;98022.72;4981068;28;20042;-57
2022/05/24 02:32:49;;;;;;;18.33;10.77;;;;;;;12.81;100.00;98030.06;4984399;28;20061;-57
2022/05/24 02:35:15;;;;;;;17.77;9.73;;;;;;;12.72;100.00;98029.88;4984632;28;20564;-57
2022/05/24 02:37:41;;;;;;;14.90;9.73;;;;;;;12.80;100.00;98030.31;4972801;28;20053;-55
2022/05/24 02:42:51;;;;;;;14.82;9.85;;;;;;;12.83;100.00;98030.56;4986082;28;20045;-57
2022/05/24 02:45:17;;;;;;;15.55;9.75;;;;;;;12.78;100.00;98027.13;4983809;28;20114;-56
2022/05/24 02:47:42;;;;;;;14.60;9.35;;;;;;;12.80;100.00;98023.06;4990264;28;20057;-56
2022/05/24 02:50:11;;;;;;;12.18;8.75;;;;;;;12.78;100.00;98025.25;5003282;28;20070;-56
2022/05/24 02:52:40;;;;;;;17.23;9.23;;;;;;;12.82;100.00;98028.16;5004229;28;20496;-56
2022/05/24 02:55:08;;;;;;;13.13;9.13;;;;;;;12.78;100.00;98016.38;5000083;28;20034;-56
2022/05/24 03:00:55;;;;;;;12.98;9.85;;;;;;;12.78;100.00;98016.38;5006427;28;20049;-56
2022/05/24 03:03:21;;;;;;;15.88;8.90;;;;;;;12.84;100.00;98012.53;5006864;28;20414;-57
2022/05/24 03:05:46;;;;;;;13.50;8.05;;;;;;;12.85;100.00;98011.44;4977326;28;20477;-56
2022/05/24 03:10:56;;;;;;;16.02;8.85;;;;;;;12.86;100.00;98005.00;5006735;28;20550;-56
2022/05/24 03:16:13;;;;;;;17.77;8.30;;;;;;;12.82;100.00;98015.50;5006180;28;20106;-55
2022/05/24 03:18:40;;;;;;;11.88;8.30;;;;;;;12.86;100.00;98002.31;4989141;28;20051;-56
2022/05/24 03:21:08;;;;;;;14.52;8.70;;;;;;;12.91;99.65;98004.94;5003921;28;20042;-55
2022/05/24 03:23:34;;;;;;;14.07;8.82;;;;;;;12.95;98.98;98011.31;5008035;28;20072;-56
2022/05/24 03:26:00;;;;;;;13.15;7.93;;;;;;;12.89;98.86;98007.09;4991754;28;20030;-55
2022/05/24 03:28:26;;;;;;;12.98;8.23;;;;;;;12.89;98.52;98012.47;4990910;28;20030;-55
2022/05/24 03:30:52;;;;;;;13.02;8.25;;;;;;;12.85;98.68;98011.44;5007650;28;20033;-56
2022/05/24 03:33:17;;;;;;;11.20;8.23;;;;;;;12.89;98.38;98001.72;5004337;28;20022;-55
2022/05/24 03:35:43;;;;;;;14.38;7.82;;;;;;;12.94;98.59;98009.72;5003932;28;20439;-56
2022/05/24 03:38:09;;;;;;;14.68;7.78;;;;;;;12.92;98.64;97998.47;5006605;28;20442;-57
2022/05/24 03:40:34;;;;;;;12.40;8.07;;;;;;;12.89;98.92;97997.16;5001878;28;20018;-56
2022/05/24 03:43:01;;;;;;;12.82;7.82;;;;;;;12.91;99.42;97988.81;5005982;28;20054;-56
2022/05/24 03:45:27;;;;;;;10.52;8.45;;;;;;;12.92;99.27;97993.09;5007035;28;20033;-55
2022/05/24 03:47:53;;;;;;;14.15;8.65;;;;;;;12.88;99.67;97987.50;5007678;28;20104;-55
2022/05/24 03:50:22;;;;;;;12.73;8.90;;;;;;;12.86;100.00;97986.97;5007177;28;20113;-56
2022/05/24 03:52:48;;;;;;;13.18;9.20;;;;;;;12.91;100.00;98004.94;5007581;28;20500;-55
2022/05/24 03:55:14;;;;;;;12.35;8.65;;;;;;;12.88;100.00;97997.41;5007775;28;20036;-53
2022/05/24 04:00:24;;;;;;;16.30;9.35;;;;;;;12.73;100.00;97999.22;5002559;28;20061;-55
2022/05/24 04:02:49;;;;;;;16.88;9.73;;;;;;;12.72;100.00;98005.66;5008801;28;20030;-55
2022/05/24 04:05:15;;;;;;;16.00;9.50;;;;;;;12.76;100.00;98013.19;5008123;28;20042;-56
2022/05/24 04:07:41;;;;;;;15.02;9.73;;;;;;;12.76;100.00;98013.19;4988862;28;20465;-54
2022/05/24 04:10:08;;;;;;;15.73;10.15;;;;;;;12.69;100.00;98019.69;5005431;28;20033;-54
2022/05/24 04:12:34;;;;;;;20.50;11.07;;;;;;;12.62;100.00;98027.28;5006617;28;20034;-54
2022/05/24 04:15:00;;;;;;;16.95;10.15;;;;;;;12.65;100.00;98024.03;4988996;28;20127;-54
2022/05/24 04:17:26;;;;;;;17.30;10.10;;;;;;;12.62;100.00;98024.59;4989640;28;20105;-56
2022/05/24 04:19:51;;;;;;;17.73;11.82;;;;;;;12.58;100.00;98031.66;5006837;28;20029;-56
2022/05/24 04:22:17;;;;;;;16.95;10.52;;;;;;;12.64;100.00;98025.13;5007387;28;20060;-57
2022/05/24 04:24:46;;;;;;;17.80;11.93;;;;;;;12.60;100.00;98036.72;5004542;28;20481;-57
2022/05/24 04:27:12;;;;;;;20.33;11.20;;;;;;;12.75;100.00;98047.31;4985980;28;20060;-57
2022/05/24 04:29:39;;;;;;;16.95;11.70;;;;;;;12.70;100.00;98040.13;4987559;28;20465;-56
2022/05/24 04:32:06;;;;;;;18.65;11.35;;;;;;;12.72;100.00;98051.38;5007045;28;20049;-56
2022/05/24 04:34:35;;;;;;;22.20;11.23;;;;;;;12.72;100.00;98050.56;4997958;28;20476;-56
2022/05/24 04:37:01;;;;;;;18.52;11.15;;;;;;;12.78;100.00;98054.00;4973967;28;20042;-56
2022/05/24 04:39:27;;;;;;;22.00;11.65;;;;;;;12.69;100.00;98070.75;5004819;28;20044;-56
2022/05/24 04:44:37;;;;;;;17.15;11.35;;;;;;;12.77;100.00;98080.09;5004379;28;20123;-55
2022/05/24 04:47:08;;;;;;;16.88;12.23;;;;;;;12.76;100.00;98078.50;5006838;28;20061;-56
2022/05/24 04:49:38;;;;;;;18.38;12.10;;;;;;;12.64;100.00;98092.31;5007030;28;20030;-53
2022/05/24 04:52:05;;;;;;;17.75;13.07;;;;;;;12.66;100.00;98092.84;5006216;28;20108;-55
2022/05/24 04:54:31;;;;;;;19.27;13.30;;;;;;;12.64;100.00;98094.22;5003300;28;20105;-55
2022/05/24 04:56:57;;;;;;;19.85;11.63;;;;;;;12.57;100.00;98091.84;5005887;28;20109;-54
2022/05/24 04:59:22;;;;;;;24.77;11.15;;;;;;;12.62;100.00;98107.94;4990183;28;20392;-55
2022/05/24 05:01:51;;;;;;;17.40;11.15;;;;;;;12.62;100.00;98121.38;5007602;28;20045;-54
2022/05/24 05:04:17;;;;;;;17.73;10.48;;;;;;;12.60;100.00;98133.47;5004652;28;20041;-55
2022/05/24 05:06:43;;;;;;;13.20;8.52;;;;;;;12.71;100.00;98141.19;4999421;28;20456;-55
2022/05/24 05:09:10;;;;;;;14.23;7.93;;;;;;;12.64;100.00;98140.72;4986027;28;20639;-55
2022/05/24 05:11:35;;;;;;;7.03;4.45;;;;;;;12.58;100.00;98139.16;4983926;28;20030;-55
2022/05/24 05:14:01;;;;;;;6.05;3.40;;;;;;;12.55;100.00;98149.66;4984087;28;20104;-55
2022/05/24 05:16:26;;;;;;;7.10;3.03;;;;;;;12.52;99.99;98148.34;4980117;28;20096;-55
2022/05/24 05:18:52;;;;;;;5.97;2.40;;;;;;;12.47;99.24;98145.69;5005295;28;20104;-55
2022/05/24 05:21:18;;;;;;;4.82;2.50;;;;;;;12.46;99.18;98149.47;5006668;28;20113;-56
2022/05/24 05:23:43;;;;;;;4.63;2.20;;;;;;;12.51;99.32;98152.91;5003516;28;20443;-54
2022/05/24 05:26:09;;;;;;;3.08;2.13;;;;;;;12.38;98.20;98164.31;5005168;28;20062;-55
2022/05/24 05:28:34;;;;;;;4.85;2.30;;;;;;;12.51;97.44;98157.50;5005914;28;20069;-53
2022/05/24 05:31:46;;;;;;;3.78;2.13;;;;;;;12.46;97.36;98165.59;5006499;28;20128;-55
2022/05/24 05:33:49;;;;;;;6.60;2.58;;;;;;;12.99;97.69;98162.97;4998972;28;20038;-55
2022/05/24 05:36:16;;;;;;;5.80;2.53;;;;;;;13.02;94.22;98167.00;5003286;28;20068;-56
2022/05/24 05:38:46;;;;;;;3.25;2.10;;;;;;;12.87;95.84;98176.00;5006425;28;20030;-55
2022/05/24 05:41:13;;;;;;;4.97;2.13;;;;;;;12.86;96.00;98177.09;5005124;28;20022;-56
2022/05/24 05:43:39;;;;;;;3.28;2.20;;;;;;;12.74;97.11;98178.25;5003407;28;20037;-54
2022/05/24 05:46:04;;;;;;;4.00;2.20;;;;;;;12.60;97.45;98196.09;5006052;28;20034;-56
2022/05/24 05:48:30;;;;;;;4.65;2.45;;;;;;;12.49;99.12;98214.19;4982827;28;20050;-56
2022/05/24 05:50:56;;;;;;;7.10;2.63;;;;;;;12.40;99.75;98210.50;5005835;28;20076;-56
2022/05/24 05:53:21;;;;;;;4.68;2.50;;;;;;;12.35;100.00;98210.53;5005356;28;20038;-56
2022/05/24 05:55:47;;;;;;;4.10;2.47;;;;;;;12.33;99.73;98219.94;5004274;28;20042;-56
2022/05/24 05:58:12;;;;;;;4.43;2.20;;;;;;;12.22;100.00;98236.13;5004945;28;20484;-56
2022/05/24 06:00:44;;;;;;;4.70;2.35;;;;;;;12.25;100.00;98240.94;4971867;28;20041;-55
2022/05/24 06:03:12;;;;;;;3.40;2.10;;;;;;;12.10;100.00;98235.66;4972518;28;20112;-57
2022/05/24 06:05:38;;;;;;;4.13;2.33;;;;;;;12.12;100.00;98230.00;4978162;28;20033;-56
2022/05/24 06:08:04;;;;;;;3.35;2.00;;;;;;;12.17;98.99;98228.09;4996415;28;20156;-55
2022/05/24 06:10:29;;;;;;;4.47;2.50;;;;;;;12.36;98.72;98214.84;5004295;28;20021;-56
2022/05/24 06:12:58;;;;;;;3.90;2.05;;;;;;;12.37;98.06;98211.06;4989530;28;20042;-55
2022/05/24 06:15:27;;;;;;;3.78;2.05;;;;;;;12.73;97.46;98203.53;5005148;28;20469;-56
2022/05/24 06:17:53;;;;;;;3.47;2.17;;;;;;;13.00;95.77;98204.91;5004600;28;20022;-55
2022/05/24 06:20:20;;;;;;;5.03;2.10;;;;;;;13.14;96.39;98222.00;5003562;28;20045;-54
2022/05/24 06:22:46;;;;;;;3.33;1.90;;;;;;;12.78;96.00;98236.84;5003298;28;20042;-55
2022/05/24 06:25:12;;;;;;;4.88;2.10;;;;;;;12.58;98.92;98249.38;5004775;28;20037;-55
2022/05/24 06:27:38;;;;;;;4.25;2.05;;;;;;;12.39;99.67;98261.84;5004674;28;20542;-55
2022/05/24 06:30:04;;;;;;;4.18;2.33;;;;;;;12.56;100.00;98261.47;5004827;28;20034;-56
2022/05/24 06:32:30;;;;;;;4.35;2.03;;;;;;;12.48;98.13;98269.03;4985356;28;20041;-56
2022/05/24 06:34:56;;;;;;;3.40;2.03;;;;;;;12.80;96.83;98272.31;4987816;28;20065;-56
2022/05/24 06:37:22;;;;;;;3.45;2.00;;;;;;;13.05;96.43;98271.31;5002878;28;20036;-55
2022/05/24 06:39:48;;;;;;;3.55;2.00;;;;;;;13.24;96.09;98292.97;5004088;28;20018;-57
2022/05/24 06:42:14;;;;;;;3.22;2.28;;;;;;;13.00;95.92;98293.66;5009630;28;20113;-56
2022/05/24 06:44:39;;;;;;;6.53;2.20;;;;;;;12.98;95.87;98298.56;4991533;28;20057;-56
2022/05/24 06:47:05;;;;;;;4.68;2.15;;;;;;;12.97;95.98;98305.00;5008447;28;20417;-56
2022/05/24 06:49:31;;;;;;;5.10;2.00;;;;;;;12.91;95.89;98298.06;4988632;28;20037;-56
2022/05/24 06:51:56;;;;;;;3.88;2.10;;;;;;;12.84;96.15;98302.94;5009277;28;20480;-57
2022/05/24 06:54:22;;;;;;;6.55;2.08;;;;;;;12.33;97.74;98295.19;5009015;28;20742;-56
2022/05/24 06:56:47;;;;;;;2.40;1.90;;;;;;;12.33;96.75;98295.19;5008755;28;20038;-56
2022/05/24 07:04:41;;;;;;;4.75;2.70;;;;;;;12.73;98.46;98300.34;5009137;28;20029;-57
2022/05/24 07:07:07;;;;;;;4.38;2.50;;;;;;;13.24;98.30;98301.03;5008554;28;20057;-57
2022/05/24 07:09:33;;;;;;;4.20;2.33;;;;;;;13.55;93.68;98305.09;5007959;28;20040;-56
2022/05/24 07:11:59;;;;;;;5.63;2.00;;;;;;;13.42;92.78;98305.72;5008402;28;20029;-57
2022/05/24 07:14:25;;;;;;;7.30;1.92;;;;;;;13.73;89.96;98308.94;4990954;28;20033;-56
2022/05/24 07:16:51;;;;;;;7.55;1.88;;;;;;;13.92;87.42;98319.78;5009234;28;20578;-57
2022/05/24 07:19:17;;;;;;;3.00;1.90;;;;;;;14.46;88.26;98318.59;4990708;28;20033;-57
2022/05/24 07:21:44;;;;;;;4.95;1.75;;;;;;;14.80;85.06;98314.09;5009400;28;20121;-58
2022/05/24 07:24:10;;;;;;;4.70;2.00;;;;;;;15.00;83.53;98321.91;5003484;28;20044;-57
2022/05/24 07:26:35;;;;;;;3.45;1.65;;;;;;;15.08;83.83;98323.16;5008761;28;20022;-57
2022/05/24 07:29:01;;;;;;;3.05;1.80;;;;;;;15.32;83.78;98326.53;5006351;28;20030;-58
2022/05/24 07:31:27;;;;;;;4.40;2.00;;;;;;;15.72;81.16;98332.34;5009334;28;20472;-56
2022/05/24 07:33:52;;;;;;;1.80;1.48;;;;;;;15.55;80.08;98324.00;5006967;28;20101;-57
2022/05/24 07:36:18;;;;;;;4.55;2.10;;;;;;;16.03;79.47;98339.88;5008905;28;20364;-56
2022/05/24 07:38:43;;;;;;;4.07;1.90;;;;;;;16.35;76.18;98333.56;4981855;28;20093;-56
2022/05/24 07:46:37;;;;;;;3.22;1.60;;;;;;;15.46;79.66;98350.06;5007231;28;20092;-56
2022/05/24 07:49:03;;;;;;;2.70;1.55;;;;;;;15.17;81.69;98353.75;4989942;28;20430;-57
2022/05/24 07:51:28;;;;;;;2.78;1.63;;;;;;;14.96;79.63;98357.88;5006482;28;20099;-57
2022/05/24 07:53:54;;;;;;;4.45;1.70;;;;;;;14.80;80.10;98371.56;5007655;28;20108;-56
2022/05/24 07:56:20;;;;;;;7.90;1.90;;;;;;;14.93;80.96;98369.25;5007439;28;20022;-57
2022/05/24 07:58:46;;;;;;;2.95;1.60;;;;;;;15.04;80.73;98371.50;5008067;28;20038;-57
2022/05/24 08:01:13;;;;;;;1.70;1.55;;;;;;;14.74;80.37;98385.41;5007717;28;20026;-56
2022/05/24 08:03:38;;;;;;;2.58;1.67;;;;;;;15.17;79.73;98386.13;4989497;28;20515;-57
2022/05/24 08:06:05;;;;;;;5.65;1.65;;;;;;;15.57;75.57;98391.19;5000876;28;20030;-57
2022/05/24 08:08:31;;;;;;;2.03;1.30;;;;;;;15.36;72.80;98402.31;4997459;28;20026;-57
2022/05/24 08:10:57;;;;;;;8.57;1.50;;;;;;;15.28;71.70;98414.59;5008457;28;20048;-56
2022/05/24 08:13:22;;;;;;;4.13;1.40;;;;;;;17.28;63.02;98416.28;4989774;28;20048;-57
2022/05/24 08:15:52;;;;;;;4.47;1.67;;;;;;;17.81;63.35;98409.38;5006782;28;20042;-56
2022/05/24 08:18:18;;;;;;;8.07;1.67;;;;;;;17.91;62.42;98419.16;4986283;28;20025;-56
2022/05/24 08:20:44;;;;;;;3.47;1.50;;;;;;;19.15;58.49;98424.38;5007820;28;20041;-57
2022/05/24 08:23:09;;;;;;;2.67;1.35;;;;;;;19.23;57.01;98425.50;5006736;28;20092;-57
2022/05/24 08:25:35;;;;;;;3.65;1.48;;;;;;;20.26;55.69;98428.41;5006832;28;20152;-57
2022/05/24 08:28:03;;;;;;;3.45;1.35;;;;;;;19.45;57.68;98438.13;4990059;28;20026;-57
2022/05/24 08:30:29;;;;;;;4.65;1.42;;;;;;;18.59;59.17;98444.97;5005125;28;20036;-56
2022/05/24 08:32:56;;;;;;;9.82;1.83;;;;;;;20.50;54.86;98443.38;5006031;28;20124;-57
2022/05/24 08:35:21;;;;;;;4.32;1.75;;;;;;;19.49;55.75;98436.34;5005813;28;20113;-56
2022/05/24 08:37:47;;;;;;;1.95;1.20;;;;;;;18.19;58.73;98468.59;5006223;28;20117;-56
2022/05/24 08:40:16;;;;;;;3.60;1.60;;;;;;;19.37;57.23;98457.97;5007549;28;20125;-57
2022/05/24 08:42:55;;;;;;;4.37;1.40;;;;;;;20.22;52.99;98465.56;5005519;28;20432;-56
2022/05/24 08:48:22;;;;;;;3.67;1.60;;;;;;;20.74;51.04;98465.38;4967854;28;20455;-57
2022/05/24 08:50:57;;;;;;;4.50;1.50;;;;;;;20.79;51.08;98462.47;4957047;28;20047;-55
2022/05/24 08:53:35;;;;;;;5.78;1.80;;;;;;;20.58;50.80;98458.88;4981934;28;20042;-52
2022/05/24 08:56:02;;;;;;;3.33;1.40;;;;;;;20.13;52.17;98451.19;4979913;28;20027;-56
2022/05/24 08:58:35;;;;;;;2.72;1.38;;;;;;;19.13;53.78;98475.50;5000925;28;20034;-56
2022/05/24 09:01:02;;;;;;;3.80;1.45;;;;;;;20.32;51.06;98465.22;4956827;28;20393;-56
2022/05/24 09:03:28;;;;;;;2.35;1.40;;;;;;;20.77;48.56;98463.94;4981514;28;20416;-56
2022/05/24 09:06:04;;;;;;;5.60;1.52;;;;;;;20.32;51.09;98467.09;4986663;28;20026;-56
2022/05/24 09:09:00;;;;;;;7.18;1.40;;;;;;;20.54;51.86;98474.25;4980871;28;20298;-56
2022/05/24 09:11:49;;;;;;;5.18;1.95;;;;;;;21.27;48.86;98469.38;4970530;28;20030;-57
2022/05/24 09:14:20;;;;;;;3.47;1.45;;;;;;;20.83;49.78;98468.84;4986494;28;20085;-57
2022/05/24 09:17:08;;;;;;;3.38;1.50;;;;;;;19.62;53.39;98475.38;4986627;28;20023;-57
2022/05/24 09:19:34;;;;;;;2.88;1.50;;;;;;;19.78;52.99;98478.44;4983428;28;20026;-55
2022/05/24 09:22:03;;;;;;;5.10;1.45;;;;;;;19.75;52.86;98489.97;4986453;28;20469;-57
2022/05/24 09:24:32;;;;;;;4.43;1.52;;;;;;;20.19;52.36;98479.78;4984157;28;20495;-55
2022/05/24 09:27:03;;;;;;;3.15;1.35;;;;;;;19.37;52.88;98488.63;4981514;28;20130;-56
2022/05/24 09:29:28;;;;;;;5.93;1.75;;;;;;;19.84;53.74;98488.00;4980482;28;20035;-56
2022/05/24 09:31:54;;;;;;;6.07;1.50;;;;;;;19.26;54.03;98481.91;4986614;28;20515;-55
2022/05/24 09:34:19;;;;;;;3.83;1.60;;;;;;;18.51;54.56;98491.88;4969629;28;20393;-57
2022/05/24 09:36:59;;;;;;;3.10;1.50;;;;;;;19.51;52.28;98480.31;4986618;28;20026;-56
2022/05/24 09:39:44;;;;;;;2.35;1.35;;;;;;;19.69;53.17;98497.44;4984092;28;20034;-57
2022/05/24 09:42:14;;;;;;;2.70;1.30;;;;;;;19.17;53.83;98492.75;4985244;28;20045;-56
2022/05/24 09:44:48;;;;;;;2.72;1.48;;;;;;;19.23;54.10;98489.91;4984817;28;20599;-56
2022/05/24 09:47:44;;;;;;;7.03;1.80;;;;;;;19.05;55.81;98506.16;4978831;28;20046;-57
2022/05/24 09:50:31;;;;;;;3.42;1.55;;;;;;;19.98;54.01;98499.50;4974814;28;20081;-56
2022/05/24 09:53:02;;;;;;;6.90;2.65;;;;;;;19.86;53.52;98510.25;4985423;28;20388;-57
2022/05/24 09:55:40;;;;;;;4.97;1.70;;;;;;;19.63;54.14;98506.06;4982073;28;20041;-56
2022/05/24 09:58:25;;;;;;;4.15;1.70;;;;;;;19.23;54.27;98506.19;4984686;28;20022;-55
2022/05/24 10:01:08;;;;;;;5.35;1.58;;;;;;;19.68;54.34;98505.94;4978725;28;20046;-55
2022/05/24 10:03:42;;;;;;;4.72;1.70;;;;;;;20.07;50.50;98509.56;4961643;28;20042;-56
2022/05/24 10:06:31;;;;;;;3.63;1.50;;;;;;;19.48;53.07;98512.78;4985161;28;20034;-56
2022/05/24 10:09:26;;;;;;;4.85;1.40;;;;;;;19.43;54.67;98518.38;4969197;28;20053;-56
2022/05/24 10:11:57;;;;;;;4.15;1.52;;;;;;;20.49;51.68;98510.59;4963401;28;20042;-56
2022/05/24 10:14:25;;;;;;;1.77;1.20;;;;;;;19.91;53.80;98522.88;4980185;28;20027;-55
2022/05/24 10:16:57;;;;;;;3.38;1.40;;;;;;;19.36;55.12;98527.78;4980567;28;20412;-56
2022/05/24 10:19:56;;;;;;;2.90;1.30;;;;;;;18.80;57.47;98525.88;5001657;28;20301;-56
2022/05/24 10:22:40;;;;;;;4.78;1.50;;;;;;;18.76;57.12;98531.13;4985063;28;20125;-56
2022/05/24 10:25:37;;;;;;;3.50;1.75;;;;;;;19.01;56.68;98532.34;4985607;28;20469;-56
2022/05/24 10:28:17;;;;;;;3.00;1.50;;;;;;;18.19;54.11;98523.63;4987445;28;20043;-56
2022/05/24 10:30:55;;;;;;;1.77;1.02;;;;;;;18.63;54.33;98540.94;4980235;28;20448;-56
2022/05/24 10:39:20;;;;;;;4.00;1.40;;;;;;;19.78;50.54;98532.81;4983362;28;20122;-57
2022/05/24 10:42:00;;;;;;;1.95;1.40;;;;;;;19.77;50.32;98542.09;4986523;28;20030;-55
2022/05/24 10:44:32;;;;;;;3.60;1.20;;;;;;;20.04;50.88;98535.50;4982286;28;20022;-56
2022/05/24 10:47:03;;;;;;;2.10;1.40;;;;;;;19.93;50.04;98540.47;4985281;28;20874;-56
2022/05/24 10:49:36;;;;;;;1.30;1.20;;;;;;;20.32;49.52;98541.41;5003877;28;20113;-55
2022/05/24 10:52:08;;;;;;;3.63;1.23;;;;;;;19.79;50.80;98542.56;5004568;28;20028;-56
2022/05/24 10:54:53;;;;;;;3.05;1.33;;;;;;;20.48;48.76;98552.56;4986334;28;20022;-55
2022/05/24 10:57:28;;;;;;;1.83;1.20;;;;;;;19.59;47.73;98538.50;4987778;28;20080;-55
2022/05/24 10:59:57;;;;;;;4.82;1.27;;;;;;;19.79;48.18;98551.53;4971035;28;20032;-55
2022/05/24 11:02:38;;;;;;;5.32;1.60;;;;;;;19.81;47.63;98564.78;5002933;28;20026;-56
2022/05/24 11:05:12;;;;;;;1.65;1.27;;;;;;;19.63;50.24;98568.59;4987992;28;20038;-55
2022/05/24 11:07:37;;;;;;;1.85;1.25;;;;;;;17.98;53.77;98582.19;4971792;28;20270;-56
2022/05/24 11:10:20;;;;;;;1.92;1.20;;;;;;;17.37;60.88;98585.09;4998386;28;20030;-56
2022/05/24 11:12:51;;;;;;;7.28;1.63;;;;;;;16.79;63.82;98589.19;4985494;28;20624;-56
2022/05/24 11:15:52;;;;;;;2.47;1.52;;;;;;;16.64;69.57;98586.72;5004662;28;20688;-55
2022/05/24 11:18:20;;;;;;;3.10;1.60;;;;;;;16.24;71.75;98585.50;4997624;28;20170;-56
2022/05/24 11:20:57;;;;;;;2.25;1.85;;;;;;;16.38;72.68;98579.06;5001531;28;20027;-57
2022/05/24 11:23:27;;;;;;;4.20;1.40;;;;;;;16.39;72.52;98566.31;5001109;28;20049;-56
2022/05/24 11:26:14;;;;;;;5.70;1.63;;;;;;;18.01;68.90;98570.72;4991579;28;20063;-57
2022/05/24 11:28:47;;;;;;;2.53;1.40;;;;;;;18.65;68.95;98559.63;4987128;28;20069;-56
2022/05/24 11:31:37;;;;;;;3.35;1.52;;;;;;;19.52;64.83;98557.22;4974588;28;20079;-56
2022/05/24 11:34:18;;;;;;;3.53;1.42;;;;;;;18.20;63.44;98551.56;4971243;28;20049;-57
2022/05/24 11:36:45;;;;;;;3.38;1.70;;;;;;;19.26;61.99;98546.31;4986634;28;20515;-56
2022/05/24 11:39:25;;;;;;;2.80;1.60;;;;;;;19.44;57.62;98545.22;4990014;28;20431;-56
2022/05/24 11:42:17;;;;;;;3.88;1.60;;;;;;;20.01;57.30;98542.38;5008070;28;20034;-55
2022/05/24 11:44:43;;;;;;;2.58;1.60;;;;;;;19.82;55.53;98550.88;5007583;28;20061;-55
2022/05/24 11:47:08;;;;;;;3.28;2.05;;;;;;;20.26;53.79;98548.91;5007099;28;20144;-55
2022/05/24 11:49:40;;;;;;;3.47;1.60;;;;;;;19.60;52.20;98542.84;4983606;28;20428;-57
2022/05/24 11:52:44;;;;;;;3.47;1.70;;;;;;;19.61;51.36;98564.25;5003590;28;20053;-55
2022/05/24 11:55:10;;;;;;;3.80;1.50;;;;;;;19.56;51.34;98558.19;5007714;28;20049;-55
2022/05/24 11:57:41;;;;;;;6.75;1.60;;;;;;;19.72;50.50;98563.97;5007593;28;20428;-55
2022/05/24 12:00:08;;;;;;;6.53;1.58;;;;;;;19.01;48.78;98573.06;5007353;28;20109;-56
2022/05/24 12:07:54;;;;;;;4.18;1.52;;;;;;;19.44;51.57;98571.59;4991337;28;20037;-53
2022/05/24 12:08:32;;;;;;;4.43;1.88;;;;;;;19.99;53.24;98573.75;4989246;28;20072;-57
2022/05/24 12:11:11;;;;;;;4.15;1.88;;;;;;;20.59;50.73;98577.53;4980995;28;20037;-56
2022/05/24 12:13:38;;;;;;;3.10;1.60;;;;;;;20.41;48.95;98574.81;4975249;28;20099;-57
2022/05/24 12:16:06;;;;;;;3.58;1.55;;;;;;;20.07;48.56;98566.69;4990644;28;20034;-57
2022/05/24 12:18:44;;;;;;;2.20;1.40;;;;;;;20.05;50.23;98572.47;4991339;28;20035;-56
2022/05/24 12:21:20;;;;;;;2.25;1.40;;;;;;;20.72;48.68;98575.72;4978051;28;20404;-57
2022/05/24 12:23:49;;;;;;;6.97;1.60;;;;;;;20.82;46.55;98567.22;4963146;28;20049;-57
2022/05/24 12:26:17;;;;;;;2.80;1.60;;;;;;;20.84;45.79;98556.78;4990702;28;20080;-56